Time;durP1;ratioP1;P1;durP2;ratioP2;P2;SDS_P1;SDS_P2;PMS_P1;PMS_P2;Temp;Humidity;BMP_temperature;BMP_pressure;BME280_temperature;BME280_humidity;BME280_pressure;Samples;Min_cycle;Max_cycle;Signal;HPM_P1;HPM_P2
2023/01/15 00:01:21;;;;;;;3.83;2.15;;;7.10;99.90;;;;;;5074025;28;20044;-85
2023/01/15 00:03:47;;;;;;;4.15;2.30;;;7.10;99.90;;;;;;5056336;28;20094;-85
2023/01/15 00:06:17;;;;;;;9.43;2.55;;;7.10;99.90;;;;;;5074449;28;20044;-85
2023/01/15 00:08:44;;;;;;;6.07;2.90;;;7.20;99.90;;;;;;5073921;28;20036;-86
2023/01/15 00:11:09;;;;;;;4.57;2.17;;;7.20;99.90;;;;;;5073941;28;20540;-85
2023/01/15 00:13:35;;;;;;;4.20;2.17;;;7.10;99.90;;;;;;5055685;28;20036;-86
2023/01/15 00:16:05;;;;;;;4.50;2.35;;;7.20;99.90;;;;;;5073832;28;20032;-85
2023/01/15 00:18:31;;;;;;;7.22;2.50;;;7.20;99.90;;;;;;5074645;28;20067;-85
2023/01/15 00:21:06;;;;;;;6.28;2.28;;;7.10;99.90;;;;;;5057896;28;20465;-86
2023/01/15 00:29:03;;;;;;;7.22;2.50;;;7.10;99.90;;;;;;5074141;28;20044;-86
2023/01/15 00:31:30;;;;;;;11.75;2.33;;;7.10;99.90;;;;;;5055807;28;20044;-85
2023/01/15 00:33:56;;;;;;;7.38;1.88;;;7.10;99.90;;;;;;5076897;28;20048;-86
2023/01/15 00:36:22;;;;;;;16.38;2.63;;;7.10;99.90;;;;;;5077593;28;20105;-85
2023/01/15 00:38:48;;;;;;;6.57;2.20;;;7.10;99.90;;;;;;5060843;28;20083;-86
2023/01/15 00:41:13;;;;;;;4.97;2.25;;;7.00;99.90;;;;;;5076855;28;20036;-85
2023/01/15 00:43:39;;;;;;;6.25;1.95;;;7.20;99.90;;;;;;5078124;28;20380;-87
2023/01/15 00:46:07;;;;;;;6.85;1.73;;;7.10;99.90;;;;;;5077493;28;20047;-86
2023/01/15 00:48:33;;;;;;;8.88;2.63;;;7.10;99.90;;;;;;5077600;28;20431;-86
2023/01/15 00:50:59;;;;;;;8.18;2.67;;;7.20;99.90;;;;;;5077471;28;20044;-87
2023/01/15 00:53:25;;;;;;;7.10;2.30;;;7.10;99.90;;;;;;5077599;28;20047;-86
2023/01/15 00:55:51;;;;;;;10.00;2.45;;;7.10;99.90;;;;;;5077528;28;20063;-86
2023/01/15 00:58:16;;;;;;;7.32;2.40;;;7.10;99.90;;;;;;5077169;28;20489;-86
2023/01/15 01:00:42;;;;;;;4.25;2.63;;;7.10;99.90;;;;;;5059674;28;20055;-86
2023/01/15 01:03:08;;;;;;;8.55;2.53;;;7.10;99.90;;;;;;5059305;28;20036;-85
2023/01/15 01:05:33;;;;;;;9.63;2.72;;;7.10;99.90;;;;;;5059256;28;20040;-86
2023/01/15 01:07:59;;;;;;;8.70;2.90;;;7.10;99.90;;;;;;5077870;28;20040;-85
2023/01/15 01:10:26;;;;;;;9.35;2.80;;;7.20;99.90;;;;;;5059796;28;20436;-86
2023/01/15 01:12:52;;;;;;;5.28;2.40;;;7.20;99.90;;;;;;5076303;28;20047;-86
2023/01/15 01:15:19;;;;;;;4.47;2.25;;;7.20;99.90;;;;;;5077660;28;20059;-87
2023/01/15 01:17:44;;;;;;;9.60;2.58;;;7.20;99.90;;;;;;5077611;28;20044;-87
2023/01/15 01:20:13;;;;;;;7.15;2.60;;;7.20;99.90;;;;;;5060117;28;20358;-85
2023/01/15 01:22:39;;;;;;;5.00;2.53;;;7.20;99.90;;;;;;5077294;28;20106;-87
2023/01/15 01:25:06;;;;;;;7.68;2.70;;;7.20;99.90;;;;;;5076682;28;20469;-87
2023/01/15 01:27:31;;;;;;;4.80;2.55;;;7.20;99.90;;;;;;5059923;28;20466;-87
2023/01/15 01:29:57;;;;;;;8.15;3.83;;;7.20;99.90;;;;;;5077242;28;20044;-87
2023/01/15 01:32:23;;;;;;;5.75;2.13;;;7.20;99.90;;;;;;5076759;28;20048;-86
2023/01/15 01:34:49;;;;;;;9.65;2.58;;;7.20;99.90;;;;;;5076518;28;20419;-87
2023/01/15 01:37:14;;;;;;;5.45;2.58;;;7.20;99.90;;;;;;5059593;28;20044;-86
2023/01/15 01:39:40;;;;;;;12.50;2.90;;;7.20;99.90;;;;;;5058851;28;20040;-86
2023/01/15 01:42:15;;;;;;;6.13;2.90;;;7.20;99.90;;;;;;5075947;28;20401;-86
2023/01/15 01:44:43;;;;;;;7.45;2.10;;;7.20;99.90;;;;;;5074874;28;20469;-87
2023/01/15 01:47:17;;;;;;;6.32;2.50;;;7.30;99.90;;;;;;5057353;28;20127;-86
2023/01/15 01:49:45;;;;;;;8.63;3.63;;;7.20;99.90;;;;;;5075837;28;20123;-87
2023/01/15 01:52:17;;;;;;;5.32;4.82;;;7.20;99.90;;;;;;5057490;28;20119;-87
2023/01/15 01:54:45;;;;;;;9.10;2.92;;;7.20;99.90;;;;;;5075090;28;20086;-87
2023/01/15 01:57:11;;;;;;;7.07;2.60;;;7.20;99.90;;;;;;5075293;28;20114;-84
2023/01/15 01:59:37;;;;;;;4.53;2.63;;;7.30;99.90;;;;;;5074953;28;20037;-86
2023/01/15 02:02:04;;;;;;;6.45;2.13;;;7.20;99.90;;;;;;5075638;28;20080;-87
2023/01/15 02:04:30;;;;;;;9.98;2.83;;;7.20;99.90;;;;;;5074965;28;20085;-88
2023/01/15 02:06:58;;;;;;;7.13;2.42;;;7.10;99.90;;;;;;5057085;28;20062;-88
2023/01/15 02:09:24;;;;;;;9.07;2.47;;;7.10;99.90;;;;;;5075033;28;20047;-88
2023/01/15 02:11:55;;;;;;;9.73;2.88;;;7.10;99.90;;;;;;5075691;28;20054;-87
2023/01/15 02:15:03;;;;;;;4.90;2.45;;;7.10;99.90;;;;;;5057746;28;20357;-88
2023/01/15 02:17:34;;;;;;;9.80;2.65;;;7.10;99.90;;;;;;5074947;28;20049;-87
2023/01/15 02:20:11;;;;;;;7.45;2.35;;;7.10;99.90;;;;;;5074652;28;20036;-88
2023/01/15 02:22:40;;;;;;;9.30;3.35;;;7.10;99.90;;;;;;5074729;28;20041;-87
2023/01/15 02:25:17;;;;;;;9.02;3.30;;;7.10;99.90;;;;;;5076230;28;20043;-87
2023/01/15 02:27:50;;;;;;;9.00;2.47;;;7.20;99.90;;;;;;5074890;28;20346;-88
2023/01/15 02:30:30;;;;;;;6.40;2.60;;;7.10;99.90;;;;;;5074624;28;20127;-87
2023/01/15 02:33:07;;;;;;;5.53;2.60;;;7.10;99.90;;;;;;5075120;28;20119;-88
2023/01/15 02:35:47;;;;;;;7.18;2.47;;;7.10;99.90;;;;;;5074488;28;20040;-88
2023/01/15 02:38:19;;;;;;;6.28;2.50;;;7.10;99.90;;;;;;5074328;28;20052;-88
2023/01/15 02:40:47;;;;;;;7.63;2.55;;;7.20;99.90;;;;;;5075038;28;20123;-88
2023/01/15 02:43:14;;;;;;;6.00;2.35;;;7.20;99.90;;;;;;5036352;28;1104300;-88
2023/01/15 02:45:43;;;;;;;12.73;3.20;;;7.20;99.90;;;;;;5075298;28;20079;-89
2023/01/15 02:48:13;;;;;;;6.88;2.55;;;7.20;99.90;;;;;;5075180;28;20041;-88
2023/01/15 02:50:43;;;;;;;6.00;2.60;;;7.20;99.90;;;;;;5075218;28;20040;-88
2023/01/15 02:53:16;;;;;;;9.23;2.60;;;7.30;99.90;;;;;;5058323;28;20449;-88
2023/01/15 02:55:46;;;;;;;7.57;2.25;;;7.30;99.90;;;;;;5074448;28;20115;-88
2023/01/15 02:58:16;;;;;;;5.13;2.47;;;7.20;99.90;;;;;;5075554;28;20068;-88
2023/01/15 03:00:46;;;;;;;6.13;2.53;;;7.30;99.90;;;;;;5075653;28;20086;-89
2023/01/15 03:03:39;;;;;;;9.00;2.80;;;7.30;99.90;;;;;;5074794;28;20478;-88
2023/01/15 03:06:12;;;;;;;8.25;2.58;;;7.20;99.90;;;;;;5075428;28;20048;-88
2023/01/15 03:08:37;;;;;;;6.85;3.13;;;7.20;99.90;;;;;;5040520;28;20040;-89
2023/01/15 03:11:11;;;;;;;6.10;3.17;;;7.20;99.90;;;;;;5074471;28;20082;-88
2023/01/15 03:13:58;;;;;;;8.30;2.63;;;7.20;99.90;;;;;;5074799;28;20106;-89
2023/01/15 03:16:40;;;;;;;8.50;2.85;;;7.20;99.90;;;;;;5074897;28;20050;-88
2023/01/15 03:19:30;;;;;;;6.40;2.70;;;7.20;99.90;;;;;;5074735;28;20119;-88
2023/01/15 03:22:19;;;;;;;7.95;3.25;;;7.20;99.90;;;;;;5074812;28;20055;-88
2023/01/15 03:24:54;;;;;;;7.35;2.95;;;7.20;99.90;;;;;;5087666;28;20044;-88
2023/01/15 03:27:20;;;;;;;5.57;3.25;;;7.10;99.90;;;;;;5098011;28;20044;-87
2023/01/15 03:29:50;;;;;;;6.55;3.45;;;7.10;99.90;;;;;;5095172;28;20036;-88
2023/01/15 03:32:18;;;;;;;9.23;2.75;;;7.10;99.90;;;;;;5092631;28;20036;-88
2023/01/15 03:34:51;;;;;;;9.15;2.40;;;7.10;99.90;;;;;;5085863;28;20071;-88
2023/01/15 03:37:19;;;;;;;10.57;2.38;;;7.10;99.90;;;;;;5075015;28;20102;-87
2023/01/15 03:39:45;;;;;;;8.18;3.80;;;7.00;99.90;;;;;;5075309;28;20058;-87
2023/01/15 03:42:19;;;;;;;7.32;2.75;;;7.10;99.90;;;;;;5074512;28;20056;-87
2023/01/15 03:45:05;;;;;;;6.85;2.60;;;7.00;99.90;;;;;;5074404;28;20044;-87
2023/01/15 03:47:38;;;;;;;14.27;3.38;;;7.00;99.90;;;;;;5075052;28;20123;-89
2023/01/15 03:50:29;;;;;;;7.07;2.20;;;7.00;99.90;;;;;;5074811;28;20124;-87
2023/01/15 03:53:09;;;;;;;5.20;2.47;;;7.00;99.90;;;;;;5062393;28;20105;-87
2023/01/15 03:55:39;;;;;;;5.10;2.53;;;7.00;99.90;;;;;;5074442;28;20106;-87
2023/01/15 03:58:12;;;;;;;9.20;3.55;;;7.00;99.90;;;;;;5074047;28;20135;-86
2023/01/15 04:00:39;;;;;;;;;;;7.10;99.90;;;;;;5074572;28;20048;-88
2023/01/15 04:03:08;;;;;;;8.45;2.38;;;7.00;99.90;;;;;;5074243;28;20002;-87
2023/01/15 04:05:36;;;;;;;6.15;2.83;;;7.10;99.90;;;;;;5073979;28;20094;-87
2023/01/15 04:08:02;;;;;;;8.65;2.38;;;7.00;99.90;;;;;;5074567;28;20048;-87
2023/01/15 04:10:28;;;;;;;4.50;2.20;;;7.00;99.90;;;;;;5039758;28;20036;-88
2023/01/15 04:12:54;;;;;;;7.45;3.65;;;7.00;99.90;;;;;;5073887;28;20089;-88
2023/01/15 04:15:19;;;;;;;8.55;2.55;;;7.10;99.90;;;;;;5074062;28;20043;-89
2023/01/15 04:17:45;;;;;;;5.70;2.83;;;7.10;99.90;;;;;;5073814;28;20354;-87
2023/01/15 04:20:11;;;;;;;13.95;2.58;;;7.00;99.90;;;;;;5074295;28;20048;-88
2023/01/15 04:22:37;;;;;;;6.50;2.63;;;7.00;99.90;;;;;;5073828;28;20044;-88
2023/01/15 04:25:05;;;;;;;12.32;3.13;;;7.00;99.90;;;;;;5073794;28;20075;-88
2023/01/15 04:27:30;;;;;;;8.57;3.55;;;7.00;99.90;;;;;;5073685;28;20037;-88
2023/01/15 04:29:56;;;;;;;5.25;3.30;;;7.00;99.90;;;;;;5074574;28;20044;-89
2023/01/15 04:32:22;;;;;;;5.18;2.70;;;7.00;99.90;;;;;;5074470;28;20365;-88
2023/01/15 04:34:49;;;;;;;6.65;2.67;;;6.90;99.90;;;;;;5039255;28;20040;-87
2023/01/15 04:37:15;;;;;;;7.47;2.47;;;6.90;99.90;;;;;;5074268;28;20048;-88
2023/01/15 04:39:41;;;;;;;8.55;3.33;;;6.90;99.90;;;;;;5073284;28;20363;-89
2023/01/15 04:44:55;;;;;;;8.60;2.95;;;6.90;99.90;;;;;;5073696;28;20047;-89
2023/01/15 04:47:21;;;;;;;6.78;2.47;;;6.90;99.90;;;;;;5073435;28;20119;-89
2023/01/15 04:49:46;;;;;;;9.70;3.75;;;6.90;99.90;;;;;;5073687;28;20036;-88
2023/01/15 04:52:13;;;;;;;8.05;3.45;;;6.90;99.90;;;;;;5056566;28;20090;-89
2023/01/15 04:54:38;;;;;;;11.10;2.97;;;6.90;99.90;;;;;;5073533;28;20044;-89
2023/01/15 04:57:04;;;;;;;6.82;2.88;;;6.80;99.90;;;;;;5074216;28;20128;-88
2023/01/15 04:59:30;;;;;;;5.45;2.53;;;6.90;99.90;;;;;;5056119;28;20461;-89
2023/01/15 05:01:56;;;;;;;16.35;3.65;;;6.90;99.90;;;;;;5073980;28;20040;-88
2023/01/15 05:04:22;;;;;;;5.70;3.80;;;6.90;99.90;;;;;;5055586;28;20041;-88
2023/01/15 05:06:48;;;;;;;7.55;2.85;;;6.90;99.90;;;;;;5073265;28;20041;-88
2023/01/15 05:09:13;;;;;;;8.82;2.92;;;6.80;99.90;;;;;;5055624;28;20109;-88
2023/01/15 05:11:39;;;;;;;12.73;4.10;;;6.80;99.90;;;;;;5072310;28;20579;-87
2023/01/15 05:14:06;;;;;;;9.15;2.35;;;6.80;99.90;;;;;;5072950;28;20075;-88
2023/01/15 05:16:33;;;;;;;8.80;3.20;;;6.80;99.90;;;;;;5073244;28;20043;-89
2023/01/15 05:19:02;;;;;;;11.43;3.17;;;6.80;99.90;;;;;;5074505;28;20476;-87
2023/01/15 05:21:30;;;;;;;5.65;2.90;;;6.80;99.90;;;;;;5076921;28;20473;-88
2023/01/15 05:23:56;;;;;;;7.90;3.22;;;6.80;99.90;;;;;;5076809;28;20082;-87
2023/01/15 05:26:23;;;;;;;9.32;2.53;;;6.80;99.90;;;;;;5059340;28;20039;-88
2023/01/15 05:28:51;;;;;;;6.95;2.97;;;6.70;99.90;;;;;;5077264;28;20040;-88
2023/01/15 05:31:18;;;;;;;5.40;2.80;;;6.70;99.90;;;;;;5076660;28;20048;-89
2023/01/15 05:33:45;;;;;;;8.27;2.92;;;6.70;99.90;;;;;;5076737;28;20089;-87
2023/01/15 05:36:14;;;;;;;6.88;4.25;;;6.70;99.90;;;;;;5076531;28;20036;-87
2023/01/15 05:38:40;;;;;;;7.90;2.83;;;6.60;99.90;;;;;;5058671;28;20498;-87
2023/01/15 05:43:52;;;;;;;7.00;2.45;;;6.60;99.90;;;;;;5077411;28;20204;-88
2023/01/15 05:46:17;;;;;;;9.30;2.97;;;6.50;99.90;;;;;;5076409;28;20487;-87
2023/01/15 05:48:43;;;;;;;5.30;2.80;;;6.50;99.90;;;;;;5076443;28;20465;-87
2023/01/15 05:51:09;;;;;;;4.03;2.30;;;6.60;99.90;;;;;;5076305;28;20040;-87
2023/01/15 05:53:35;;;;;;;6.60;2.88;;;6.50;99.90;;;;;;5076299;28;20477;-87
2023/01/15 05:56:01;;;;;;;8.68;3.42;;;6.60;99.90;;;;;;5076177;28;20036;-86
2023/01/15 05:58:27;;;;;;;5.18;2.33;;;6.50;99.90;;;;;;5076081;28;20040;-87
2023/01/15 06:00:53;;;;;;;6.68;2.75;;;6.50;99.90;;;;;;5075522;28;20041;-87
2023/01/15 06:03:21;;;;;;;7.60;2.35;;;6.50;99.90;;;;;;5057650;28;20051;-85
2023/01/15 06:05:54;;;;;;;5.80;2.58;;;6.50;99.90;;;;;;5075934;28;20075;-85
2023/01/15 06:08:22;;;;;;;7.18;2.75;;;6.50;99.90;;;;;;5075887;28;20044;-85
2023/01/15 06:10:48;;;;;;;8.90;2.42;;;6.50;99.90;;;;;;5075429;28;20040;-87
2023/01/15 06:13:15;;;;;;;9.73;2.58;;;6.40;99.90;;;;;;5075090;28;20056;-86
2023/01/15 06:15:40;;;;;;;5.80;2.65;;;6.50;99.90;;;;;;5075843;28;20037;-87
2023/01/15 06:18:06;;;;;;;8.60;2.97;;;6.50;99.90;;;;;;5075502;28;20060;-86
2023/01/15 06:20:36;;;;;;;8.88;2.67;;;6.50;99.90;;;;;;5075896;28;20123;-86
2023/01/15 06:23:02;;;;;;;9.40;2.83;;;6.40;99.90;;;;;;5058265;28;20051;-86
2023/01/15 06:25:28;;;;;;;7.90;2.33;;;5.90;99.90;;;;;;5075646;28;20040;-86
2023/01/15 06:27:54;;;;;;;16.25;3.58;;;6.30;99.90;;;;;;5075772;28;20052;-87
2023/01/15 06:30:20;;;;;;;8.45;2.45;;;6.30;99.90;;;;;;5074751;28;20105;-87
2023/01/15 06:32:45;;;;;;;5.43;2.65;;;6.30;99.90;;;;;;5058023;28;20381;-86
2023/01/15 06:35:13;;;;;;;14.88;2.50;;;6.30;99.90;;;;;;5075416;28;20086;-86
2023/01/15 06:37:38;;;;;;;5.47;2.55;;;6.30;99.90;;;;;;5075471;28;20087;-86
2023/01/15 06:40:05;;;;;;;9.25;3.38;;;6.30;99.90;;;;;;5074736;28;20084;-86
2023/01/15 06:48:00;;;;;;;5.38;2.33;;;6.20;99.90;;;;;;5075310;28;20059;-86
2023/01/15 06:50:25;;;;;;;9.40;2.38;;;6.10;99.90;;;;;;5057527;28;20098;-87
2023/01/15 06:52:51;;;;;;;9.98;2.60;;;6.10;99.90;;;;;;5075153;28;20036;-87
2023/01/15 06:55:17;;;;;;;7.53;2.50;;;6.10;99.90;;;;;;5074994;28;20089;-86
2023/01/15 06:57:43;;;;;;;6.88;2.83;;;6.10;99.90;;;;;;5075043;28;20095;-86
2023/01/15 07:00:11;;;;;;;5.10;2.70;;;6.10;99.90;;;;;;5074940;28;20040;-83
2023/01/15 07:02:40;;;;;;;8.63;2.97;;;6.10;99.90;;;;;;5074786;28;20040;-85
2023/01/15 07:05:06;;;;;;;5.60;2.55;;;6.10;99.90;;;;;;5074784;28;20043;-85
2023/01/15 07:07:32;;;;;;;5.40;4.40;;;6.10;99.90;;;;;;5074803;28;20044;-85
2023/01/15 07:09:58;;;;;;;9.27;3.60;;;6.10;99.90;;;;;;5074708;28;20036;-85
2023/01/15 07:12:24;;;;;;;8.60;3.00;;;6.00;99.90;;;;;;5074884;28;20064;-85
2023/01/15 07:14:49;;;;;;;14.23;3.10;;;6.00;99.90;;;;;;5073653;28;20101;-86
2023/01/15 07:17:15;;;;;;;6.53;2.72;;;6.00;99.90;;;;;;5074750;28;20040;-86
2023/01/15 07:19:42;;;;;;;4.90;2.45;;;6.00;99.90;;;;;;5074635;28;20457;-86
2023/01/15 07:22:09;;;;;;;9.40;2.83;;;6.00;99.90;;;;;;5056540;28;20488;-87
2023/01/15 07:24:35;;;;;;;6.43;2.70;;;6.10;99.90;;;;;;5075161;28;20055;-85
2023/01/15 07:27:00;;;;;;;8.68;2.70;;;6.10;99.90;;;;;;5074263;28;20036;-86
2023/01/15 07:29:26;;;;;;;10.90;2.50;;;6.10;99.90;;;;;;5074485;28;20123;-86
2023/01/15 07:31:52;;;;;;;6.72;2.92;;;6.10;99.90;;;;;;5056648;28;20048;-86
2023/01/15 07:34:18;;;;;;;7.78;2.42;;;6.00;99.90;;;;;;5074315;28;20048;-85
2023/01/15 07:36:44;;;;;;;6.50;2.45;;;6.00;99.90;;;;;;5074297;28;20457;-86
2023/01/15 07:39:11;;;;;;;9.52;3.05;;;6.00;99.90;;;;;;5056804;28;20044;-84
2023/01/15 07:50:09;;;;;;;3.70;2.10;;;6.10;99.90;;;;;;5074028;28;20048;-84
2023/01/15 07:52:34;;;;;;;7.18;2.60;;;6.20;99.90;;;;;;5074221;28;20048;-85
2023/01/15 07:55:00;;;;;;;11.50;2.47;;;6.20;99.90;;;;;;5074148;28;20063;-84
2023/01/15 07:57:26;;;;;;;6.93;2.60;;;6.20;99.90;;;;;;5074053;28;20461;-85
2023/01/15 07:59:52;;;;;;;8.65;2.13;;;6.20;99.90;;;;;;5074884;28;20040;-86
2023/01/15 08:02:18;;;;;;;4.60;2.10;;;6.20;99.90;;;;;;5074312;28;20453;-86
2023/01/15 08:04:44;;;;;;;6.50;2.35;;;6.10;99.90;;;;;;5074173;28;20076;-86
2023/01/15 08:07:09;;;;;;;5.47;1.98;;;6.10;99.90;;;;;;5073453;28;20036;-86
2023/01/15 08:09:35;;;;;;;10.95;2.33;;;6.10;99.90;;;;;;5056317;28;20052;-86
2023/01/15 08:17:36;;;;;;;2.60;2.22;;;6.10;99.90;;;;;;5074361;28;20389;-84
2023/01/15 08:20:03;;;;;;;5.05;1.50;;;6.10;99.90;;;;;;5055815;28;20109;-84
2023/01/15 08:22:29;;;;;;;12.23;2.42;;;6.10;99.90;;;;;;5056246;28;20047;-84
2023/01/15 08:24:55;;;;;;;6.50;2.22;;;6.10;99.90;;;;;;5056830;28;20045;-85
2023/01/15 08:27:21;;;;;;;9.90;2.35;;;6.10;99.90;;;;;;5074321;28;20040;-85
2023/01/15 08:29:47;;;;;;;6.75;2.42;;;6.10;99.90;;;;;;5073676;28;20479;-85
2023/01/15 08:32:12;;;;;;;4.55;1.98;;;6.30;99.90;;;;;;5073519;28;20052;-85
2023/01/15 08:34:38;;;;;;;5.40;2.30;;;6.40;99.90;;;;;;5073341;28;20527;-85
2023/01/15 08:37:04;;;;;;;5.60;2.63;;;6.50;99.90;;;;;;5074121;28;20080;-77
2023/01/15 08:39:29;;;;;;;5.03;2.10;;;6.50;99.90;;;;;;5055879;28;20127;-85
2023/01/15 08:41:55;;;;;;;5.13;2.47;;;6.60;99.90;;;;;;5056417;28;20106;-85
2023/01/15 08:44:22;;;;;;;5.72;2.17;;;6.60;99.90;;;;;;5073505;28;20036;-83
2023/01/15 08:46:49;;;;;;;8.38;2.00;;;6.60;99.90;;;;;;5073485;28;20048;-84
2023/01/15 08:49:15;;;;;;;9.00;2.75;;;6.50;99.90;;;;;;5073376;28;20052;-78
2023/01/15 08:51:42;;;;;;;4.43;1.75;;;6.50;99.90;;;;;;5073415;28;20047;-83
2023/01/15 08:54:08;;;;;;;7.25;2.40;;;6.30;99.90;;;;;;5075316;28;20047;-81
2023/01/15 08:56:34;;;;;;;6.28;1.77;;;6.10;99.90;;;;;;5077825;28;20041;-84
2023/01/15 08:59:07;;;;;;;5.18;2.10;;;5.90;99.90;;;;;;5077135;28;20093;-84
2023/01/15 09:01:33;;;;;;;4.97;2.53;;;5.90;99.90;;;;;;5077212;28;20087;-82
2023/01/15 09:03:59;;;;;;;6.30;3.25;;;5.80;99.90;;;;;;5076017;28;20453;-82
2023/01/15 09:06:25;;;;;;;11.13;2.60;;;5.80;99.90;;;;;;5077137;28;20097;-83
2023/01/15 09:08:51;;;;;;;4.07;1.95;;;5.90;99.90;;;;;;5077567;28;20048;-87
2023/01/15 09:11:17;;;;;;;5.97;2.35;;;5.90;99.90;;;;;;5077495;28;20445;-83
2023/01/15 09:13:42;;;;;;;5.57;2.25;;;5.80;99.90;;;;;;5059185;28;20044;-84
2023/01/15 09:16:08;;;;;;;6.00;1.90;;;5.90;99.90;;;;;;5076778;28;20099;-80
2023/01/15 09:18:36;;;;;;;8.23;2.10;;;5.90;99.90;;;;;;5059110;28;20045;-82
2023/01/15 09:21:02;;;;;;;3.72;2.45;;;5.90;99.90;;;;;;5077696;28;20041;-81
2023/01/15 09:23:28;;;;;;;6.47;2.65;;;5.90;99.90;;;;;;5076289;28;20435;-80
2023/01/15 09:25:57;;;;;;;6.90;2.30;;;5.90;99.90;;;;;;5076684;28;20040;-85
2023/01/15 09:28:22;;;;;;;4.70;2.92;;;5.80;99.90;;;;;;5077148;28;20423;-82
2023/01/15 09:30:48;;;;;;;11.75;2.50;;;5.80;99.90;;;;;;5076570;28;20044;-84
2023/01/15 09:33:14;;;;;;;10.68;2.83;;;5.80;99.90;;;;;;5076978;28;20051;-82
2023/01/15 09:35:42;;;;;;;3.78;1.98;;;5.60;99.90;;;;;;5076705;28;20045;-82
2023/01/15 09:38:16;;;;;;;5.20;3.08;;;5.60;99.90;;;;;;5077724;28;20044;-81
2023/01/15 09:40:55;;;;;;;6.18;2.45;;;5.50;99.90;;;;;;5079566;28;20444;-81
2023/01/15 09:43:48;;;;;;;5.57;1.98;;;5.50;99.90;;;;;;5079371;28;20122;-82
2023/01/15 09:46:32;;;;;;;3.97;2.00;;;5.60;99.90;;;;;;5080915;28;20076;-81
2023/01/15 09:49:12;;;;;;;4.13;2.35;;;5.60;99.90;;;;;;5097602;28;20032;-82
2023/01/15 09:51:50;;;;;;;7.53;2.15;;;5.70;99.90;;;;;;5086684;28;20341;-84
2023/01/15 09:54:53;;;;;;;3.72;2.70;;;5.70;99.90;;;;;;5058446;28;20094;-84
2023/01/15 09:57:21;;;;;;;10.27;2.40;;;5.80;99.90;;;;;;5059253;28;20102;-82
2023/01/15 09:59:49;;;;;;;6.55;2.42;;;6.00;99.90;;;;;;5076174;28;20076;-82
2023/01/15 10:02:20;;;;;;;3.88;1.88;;;6.00;99.90;;;;;;5076630;28;20048;-83
2023/01/15 10:05:12;;;;;;;8.95;3.03;;;6.10;99.90;;;;;;5075424;28;20562;-80
2023/01/15 10:08:05;;;;;;;4.65;2.38;;;6.10;99.90;;;;;;5044897;28;20094;-80
2023/01/15 10:10:39;;;;;;;6.38;2.08;;;6.10;99.90;;;;;;5076211;28;20093;-79
2023/01/15 10:13:27;;;;;;;6.85;2.25;;;6.10;99.90;;;;;;5076069;28;20454;-79
2023/01/15 10:15:54;;;;;;;5.57;2.17;;;6.20;99.90;;;;;;5075754;28;20040;-80
2023/01/15 10:18:25;;;;;;;5.15;3.17;;;6.30;99.90;;;;;;5074793;28;20381;-79
2023/01/15 10:21:04;;;;;;;6.18;2.83;;;6.20;99.90;;;;;;5075711;28;20110;-81
2023/01/15 10:23:38;;;;;;;5.25;2.70;;;6.30;99.90;;;;;;5075713;28;20123;-80
2023/01/15 10:26:10;;;;;;;6.43;1.95;;;6.30;99.90;;;;;;5075529;28;20032;-79
2023/01/15 10:28:58;;;;;;;4.20;1.85;;;6.40;99.90;;;;;;5075490;28;20036;-80
2023/01/15 10:31:39;;;;;;;3.85;2.20;;;6.40;99.90;;;;;;5076134;28;20178;-79
2023/01/15 10:34:44;;;;;;;7.32;2.03;;;6.50;99.90;;;;;;5058069;28;20109;-79
2023/01/15 10:37:22;;;;;;;6.95;2.05;;;6.60;99.90;;;;;;5044246;28;20093;-79
2023/01/15 10:40:27;;;;;;;5.88;2.15;;;6.50;99.90;;;;;;5075312;28;20040;-80
2023/01/15 10:43:17;;;;;;;6.20;3.15;;;6.60;99.90;;;;;;5058067;28;20401;-79
2023/01/15 10:45:47;;;;;;;6.10;2.70;;;6.60;99.90;;;;;;5075735;28;20041;-79
2023/01/15 10:48:31;;;;;;;6.32;2.30;;;6.60;99.90;;;;;;5075050;28;20084;-80
2023/01/15 10:51:01;;;;;;;2.88;1.90;;;6.80;99.90;;;;;;5075166;28;20102;-79
2023/01/15 10:53:42;;;;;;;5.10;2.25;;;6.90;99.90;;;;;;5057322;28;20059;-80
2023/01/15 10:56:38;;;;;;;9.23;3.28;;;6.90;99.90;;;;;;5074232;28;20089;-81
2023/01/15 10:59:14;;;;;;;8.45;2.80;;;6.90;99.90;;;;;;5075323;28;20047;-80
2023/01/15 11:01:40;;;;;;;7.57;2.20;;;6.80;99.90;;;;;;5075098;28;20046;-80
2023/01/15 11:04:09;;;;;;;10.60;2.75;;;6.80;99.90;;;;;;5057030;28;20044;-81
2023/01/15 11:06:34;;;;;;;2.75;2.05;;;6.80;99.90;;;;;;5075373;28;20128;-80
2023/01/15 11:09:00;;;;;;;7.00;2.67;;;6.80;99.90;;;;;;5056823;28;20119;-80
2023/01/15 11:20:24;;;;;;;7.07;2.42;;;6.70;99.90;;;;;;5074691;28;20083;-80
2023/01/15 11:22:49;;;;;;;6.90;2.65;;;6.70;99.90;;;;;;5074492;28;20043;-80
2023/01/15 11:25:28;;;;;;;9.02;2.88;;;6.70;99.90;;;;;;5074540;28;20036;-81
2023/01/15 11:27:55;;;;;;;7.93;2.60;;;6.70;99.90;;;;;;5074716;28;20102;-80
2023/01/15 11:30:27;;;;;;;10.57;3.20;;;6.80;99.90;;;;;;5056716;28;20051;-81
2023/01/15 11:32:57;;;;;;;9.63;2.70;;;6.90;99.90;;;;;;5074180;28;20495;-82
2023/01/15 11:35:23;;;;;;;13.45;2.92;;;6.80;99.90;;;;;;5074592;28;20465;-81
2023/01/15 11:37:49;;;;;;;7.20;2.70;;;6.90;99.90;;;;;;5073340;28;20051;-81
2023/01/15 11:40:25;;;;;;;13.32;4.72;;;6.90;99.90;;;;;;5074163;28;20051;-81
2023/01/15 11:51:45;;;;;;;9.65;2.60;;;7.40;99.90;;;;;;5074922;28;20080;-82
2023/01/15 11:54:14;;;;;;;4.40;2.00;;;7.40;99.90;;;;;;5056302;28;20040;-81
2023/01/15 11:56:44;;;;;;;6.05;2.97;;;7.50;99.90;;;;;;5074027;28;20048;-80
2023/01/15 11:59:20;;;;;;;10.98;2.88;;;7.50;99.90;;;;;;5074283;28;20036;-84
2023/01/15 12:01:53;;;;;;;5.97;3.42;;;7.60;99.90;;;;;;5073966;28;20485;-84
2023/01/15 12:04:24;;;;;;;;;;;7.70;99.90;;;;;;5040885;28;20052;-83
2023/01/15 12:06:49;;;;;;;6.93;2.60;;;7.70;99.90;;;;;;5072906;28;19931;-82
2023/01/15 12:09:56;;;;;;;3.90;2.38;;;7.80;99.90;;;;;;5074048;28;20048;-80
2023/01/15 12:12:49;;;;;;;7.07;2.72;;;7.80;99.90;;;;;;5063171;28;20057;-80
2023/01/15 12:15:15;;;;;;;7.22;3.30;;;7.80;99.90;;;;;;5074338;28;20164;-79
2023/01/15 12:18:04;;;;;;;11.88;2.97;;;7.70;99.90;;;;;;5073937;28;20087;-81
2023/01/15 12:21:01;;;;;;;5.55;2.45;;;7.70;99.90;;;;;;5059864;28;20132;-83
2023/01/15 12:23:55;;;;;;;5.78;2.75;;;7.60;99.90;;;;;;5073880;28;20074;-84
2023/01/15 12:26:32;;;;;;;10.52;3.53;;;7.60;99.90;;;;;;5073815;28;20079;-82
2023/01/15 12:29:17;;;;;;;8.00;2.63;;;7.80;99.90;;;;;;5077613;28;20045;-81
2023/01/15 12:31:58;;;;;;;7.28;2.28;;;7.80;99.90;;;;;;5078480;28;20044;-83
2023/01/15 12:34:45;;;;;;;5.32;2.05;;;8.00;99.90;;;;;;5077739;28;20076;-83
2023/01/15 12:37:23;;;;;;;4.72;2.35;;;8.00;99.90;;;;;;5077384;28;20040;-80
2023/01/15 12:39:53;;;;;;;3.70;2.17;;;8.00;99.90;;;;;;5077710;28;20040;-82
2023/01/15 12:45:16;;;;;;;6.90;2.20;;;8.00;99.90;;;;;;5078090;28;20044;-78
2023/01/15 12:47:50;;;;;;;11.25;2.22;;;7.90;99.90;;;;;;5077731;28;20377;-77
2023/01/15 12:50:38;;;;;;;5.65;1.85;;;7.90;99.90;;;;;;5043335;28;20105;-80
2023/01/15 12:53:19;;;;;;;3.55;1.67;;;7.80;99.90;;;;;;5077363;28;20083;-81
2023/01/15 12:56:08;;;;;;;5.18;2.10;;;7.80;99.90;;;;;;5077390;28;20040;-81
2023/01/15 12:58:55;;;;;;;4.32;2.65;;;7.80;99.90;;;;;;5077597;28;20048;-77
2023/01/15 13:01:33;;;;;;;5.38;1.98;;;7.70;99.90;;;;;;5079040;28;20129;-79
2023/01/15 13:04:21;;;;;;;9.25;2.63;;;7.60;99.90;;;;;;5061102;28;20147;-82
2023/01/15 13:06:53;;;;;;;5.60;3.47;;;7.60;99.90;;;;;;5061512;28;20147;-77
2023/01/15 13:09:21;;;;;;;5.50;2.85;;;7.50;99.90;;;;;;5078518;28;20080;-77
2023/01/15 13:11:47;;;;;;;10.23;3.20;;;7.40;99.90;;;;;;5077019;28;20040;-75
2023/01/15 13:14:18;;;;;;;7.60;2.85;;;7.40;99.90;;;;;;5077629;28;20098;-74
2023/01/15 13:17:15;;;;;;;7.50;2.72;;;7.30;99.90;;;;;;5042739;28;20036;-72
2023/01/15 13:20:03;;;;;;;12.60;2.50;;;7.20;99.90;;;;;;5075434;28;20445;-76
2023/01/15 13:22:31;;;;;;;5.18;1.95;;;6.90;99.90;;;;;;5077766;28;20045;-74
2023/01/15 13:25:25;;;;;;;2.72;2.20;;;6.60;99.90;;;;;;5076740;28;20055;-74
2023/01/15 13:28:09;;;;;;;4.63;1.42;;;6.40;99.90;;;;;;5077141;28;20059;-74
2023/01/15 13:30:56;;;;;;;6.63;1.92;;;6.30;99.90;;;;;;5076639;28;20041;-73
2023/01/15 13:33:34;;;;;;;3.40;1.42;;;6.30;99.90;;;;;;5077524;28;20040;-73
2023/01/15 13:36:16;;;;;;;4.38;1.30;;;6.30;99.90;;;;;;5076435;28;20036;-74
2023/01/15 13:38:48;;;;;;;3.85;2.65;;;6.20;99.90;;;;;;5076333;28;20049;-74
2023/01/15 13:44:21;;;;;;;7.75;1.48;;;6.10;99.90;;;;;;5076891;28;20445;-73
2023/01/15 13:46:59;;;;;;;2.80;1.25;;;6.10;99.90;;;;;;5076213;28;20119;-73
2023/01/15 13:49:30;;;;;;;3.50;1.90;;;6.10;99.90;;;;;;5076360;28;20051;-73
2023/01/15 13:52:02;;;;;;;5.53;2.10;;;6.10;99.90;;;;;;5059372;28;20453;-73
2023/01/15 13:54:30;;;;;;;4.65;2.15;;;6.10;99.90;;;;;;5076130;28;20044;-73
2023/01/15 13:57:09;;;;;;;4.68;1.33;;;6.10;99.90;;;;;;5076092;28;20119;-73
2023/01/15 13:59:42;;;;;;;1.42;1.33;;;6.10;99.90;;;;;;5076159;28;20099;-74
2023/01/15 14:02:25;;;;;;;3.55;2.13;;;6.10;99.90;;;;;;5076661;28;20117;-74
2023/01/15 14:04:51;;;;;;;5.30;1.33;;;6.20;99.90;;;;;;5076021;28;20037;-74
2023/01/15 14:07:39;;;;;;;3.22;1.33;;;6.20;99.90;;;;;;5058262;28;20044;-73
2023/01/15 14:10:20;;;;;;;3.30;1.38;;;6.20;99.90;;;;;;5076153;28;20097;-74